Time;durP1;ratioP1;P1;durP2;ratioP2;P2;SDS_P1;SDS_P2;PMS_P1;PMS_P2;Temp;Humidity;BMP_temperature;BMP_pressure;BME280_temperature;BME280_humidity;BME280_pressure;Samples;Min_cycle;Max_cycle;Signal;HPM_P1;HPM_P2
2023/10/10 00:01:27;;;;;;;29.98;15.30;;;16.40;99.90;;;;;;5072626;28;20036;-54
2023/10/10 00:03:53;;;;;;;29.50;15.63;;;16.40;99.90;;;;;;5076495;28;20060;-54
2023/10/10 00:06:22;;;;;;;30.17;15.45;;;16.40;99.90;;;;;;5058797;28;20039;-52
2023/10/10 00:08:50;;;;;;;35.72;15.70;;;16.40;99.90;;;;;;5058604;28;20075;-52
2023/10/10 00:11:18;;;;;;;34.73;16.90;;;16.40;99.90;;;;;;5077239;28;20055;-56
2023/10/10 00:13:46;;;;;;;32.08;16.00;;;16.40;99.90;;;;;;5076823;28;20040;-56
2023/10/10 00:16:35;;;;;;;28.70;15.57;;;16.40;99.90;;;;;;5059059;28;20032;-54
2023/10/10 00:19:19;;;;;;;29.35;15.48;;;16.30;99.90;;;;;;5076118;28;20033;-53
2023/10/10 00:21:50;;;;;;;33.20;16.55;;;16.40;99.90;;;;;;5076746;28;20039;-55
2023/10/10 00:24:20;;;;;;;30.33;15.10;;;16.30;99.90;;;;;;5058171;28;20035;-56
2023/10/10 00:26:47;;;;;;;26.08;14.88;;;16.30;99.90;;;;;;5076478;28;20040;-54
2023/10/10 00:29:13;;;;;;;33.78;16.38;;;16.30;99.90;;;;;;5057761;28;20032;-55
2023/10/10 00:31:43;;;;;;;31.73;15.38;;;16.30;99.90;;;;;;5058457;28;20036;-56
2023/10/10 00:34:09;;;;;;;35.60;16.58;;;16.30;99.90;;;;;;5075520;28;20039;-56
2023/10/10 00:36:35;;;;;;;30.20;15.05;;;16.30;99.90;;;;;;5076054;28;20029;-56
2023/10/10 00:39:07;;;;;;;29.52;14.50;;;16.30;99.90;;;;;;5057817;28;20090;-55
2023/10/10 00:41:44;;;;;;;27.25;12.82;;;16.40;99.90;;;;;;5058046;28;20036;-54
2023/10/10 00:44:16;;;;;;;25.13;12.00;;;16.40;99.90;;;;;;5059411;28;20075;-52
2023/10/10 00:46:42;;;;;;;28.17;13.18;;;16.40;99.90;;;;;;5058382;28;20090;-54
2023/10/10 00:49:13;;;;;;;26.02;13.07;;;16.30;99.90;;;;;;5057465;28;20516;-53
2023/10/10 00:51:40;;;;;;;26.65;12.60;;;16.30;99.90;;;;;;5058160;28;20039;-53
2023/10/10 00:54:12;;;;;;;28.00;13.85;;;16.30;99.90;;;;;;5057974;28;20032;-51
2023/10/10 00:56:43;;;;;;;24.38;12.75;;;16.20;99.90;;;;;;5058040;28;20035;-52
2023/10/10 00:59:10;;;;;;;28.73;14.45;;;16.20;99.90;;;;;;5057444;28;20090;-55
2023/10/10 01:01:40;;;;;;;24.85;12.75;;;16.20;99.90;;;;;;5057878;28;20040;-56
2023/10/10 01:04:07;;;;;;;28.88;13.00;;;16.10;99.90;;;;;;5057652;28;20513;-50
2023/10/10 01:06:39;;;;;;;27.10;13.50;;;16.10;99.90;;;;;;5058590;28;20103;-50
2023/10/10 01:09:21;;;;;;;29.85;14.20;;;16.00;99.90;;;;;;5057883;28;20060;-51
2023/10/10 01:11:49;;;;;;;30.58;14.55;;;16.00;99.90;;;;;;5058471;28;20115;-52
2023/10/10 01:14:18;;;;;;;30.00;15.05;;;16.00;99.90;;;;;;5075913;28;20123;-52
2023/10/10 01:16:54;;;;;;;30.67;14.20;;;15.90;99.90;;;;;;5076704;28;20029;-51
2023/10/10 01:19:21;;;;;;;31.23;14.48;;;15.80;99.90;;;;;;5075910;28;20068;-50
2023/10/10 01:21:57;;;;;;;34.78;16.35;;;15.80;99.90;;;;;;5058427;28;20511;-53
2023/10/10 01:24:32;;;;;;;29.38;15.82;;;15.60;99.90;;;;;;5076092;28;20051;-51
2023/10/10 01:27:05;;;;;;;33.50;15.43;;;15.50;99.90;;;;;;5057271;28;20044;-52
2023/10/10 01:29:40;;;;;;;30.50;16.02;;;15.50;99.90;;;;;;5055831;28;20086;-53
2023/10/10 01:32:10;;;;;;;31.35;16.25;;;15.50;99.90;;;;;;5074471;28;20025;-51
2023/10/10 01:34:45;;;;;;;34.88;16.13;;;15.40;99.90;;;;;;5075667;28;20385;-50
2023/10/10 01:37:27;;;;;;;33.15;16.50;;;15.30;99.90;;;;;;5057726;28;20028;-51
2023/10/10 01:39:55;;;;;;;33.55;16.45;;;15.30;99.90;;;;;;5057279;28;20029;-49
2023/10/10 01:42:31;;;;;;;33.42;16.63;;;15.20;99.90;;;;;;5057803;28;20036;-49
2023/10/10 01:44:59;;;;;;;32.58;16.60;;;15.20;99.90;;;;;;5057746;28;20389;-50
2023/10/10 01:47:28;;;;;;;35.85;16.42;;;15.10;99.90;;;;;;5075879;28;20029;-50
2023/10/10 01:49:58;;;;;;;;;;;15.10;99.90;;;;;;5058195;28;20028;-52
2023/10/10 01:52:25;;;;;;;39.72;17.35;;;15.10;99.90;;;;;;5075405;28;20315;-49
2023/10/10 01:54:53;;;;;;;40.17;18.13;;;15.10;99.90;;;;;;5057517;28;20054;-49
2023/10/10 01:57:24;;;;;;;34.78;16.38;;;15.00;99.90;;;;;;5058059;28;20024;-48
2023/10/10 01:59:57;;;;;;;38.10;17.35;;;15.00;99.90;;;;;;5057250;28;20020;-52
2023/10/10 02:02:25;;;;;;;41.97;18.58;;;14.90;99.90;;;;;;5057031;28;20020;-51
2023/10/10 02:04:59;;;;;;;41.05;19.52;;;14.80;99.90;;;;;;5057091;28;20079;-50
2023/10/10 02:07:31;;;;;;;38.03;18.10;;;14.80;99.90;;;;;;5056825;28;20021;-53
2023/10/10 02:10:12;;;;;;;38.80;18.25;;;14.80;99.90;;;;;;5057108;28;20103;-51
2023/10/10 02:12:39;;;;;;;38.42;18.90;;;14.80;99.90;;;;;;5056587;28;20063;-48
2023/10/10 02:15:12;;;;;;;42.60;17.92;;;14.70;99.90;;;;;;5040816;28;20029;-51
2023/10/10 02:17:51;;;;;;;38.67;18.63;;;14.70;99.90;;;;;;5056987;28;20530;-50
2023/10/10 02:22:53;;;;;;;38.13;18.20;;;14.70;99.90;;;;;;5075221;28;20455;-50
2023/10/10 02:27:55;;;;;;;36.88;17.92;;;14.60;99.90;;;;;;5056884;28;20039;-50
2023/10/10 02:30:34;;;;;;;;;;;14.60;99.90;;;;;;5057072;28;20552;-50
2023/10/10 02:33:12;;;;;;;38.05;17.75;;;14.60;99.90;;;;;;5074495;28;19944;-51
2023/10/10 02:35:47;;;;;;;37.95;18.23;;;14.50;99.90;;;;;;5056518;28;20041;-55
2023/10/10 02:38:12;;;;;;;43.40;18.23;;;14.50;99.90;;;;;;5056319;28;20036;-51
2023/10/10 02:40:43;;;;;;;40.95;17.98;;;14.40;99.90;;;;;;5056652;28;20033;-52
2023/10/10 02:43:33;;;;;;;37.40;18.20;;;14.40;99.90;;;;;;5056398;28;20404;-50
2023/10/10 02:46:00;;;;;;;37.90;17.30;;;14.40;99.90;;;;;;5074461;28;20508;-52
2023/10/10 02:48:30;;;;;;;42.05;18.75;;;14.40;99.90;;;;;;5055947;28;20078;-52
2023/10/10 02:51:02;;;;;;;38.67;18.23;;;14.40;99.90;;;;;;5056656;28;20035;-51
2023/10/10 02:53:32;;;;;;;36.28;17.90;;;14.50;99.90;;;;;;5056301;28;20035;-51
2023/10/10 02:56:01;;;;;;;37.17;17.00;;;14.40;99.90;;;;;;5056826;28;20033;-52
2023/10/10 02:58:28;;;;;;;39.63;17.63;;;14.40;99.90;;;;;;5074002;28;20628;-54
2023/10/10 03:00:58;;;;;;;42.90;18.15;;;14.40;99.90;;;;;;5074232;28;20060;-52
2023/10/10 03:03:24;;;;;;;40.42;17.77;;;14.30;99.90;;;;;;5055922;28;20083;-54
2023/10/10 03:05:50;;;;;;;41.50;18.55;;;14.40;99.90;;;;;;5055917;28;20035;-55
2023/10/10 03:08:34;;;;;;;36.17;17.35;;;14.30;99.90;;;;;;5073561;28;20116;-51
2023/10/10 03:11:14;;;;;;;37.42;17.83;;;14.30;99.90;;;;;;5073928;28;20084;-53
2023/10/10 03:13:54;;;;;;;42.15;19.02;;;14.30;99.90;;;;;;5055845;28;20111;-54
2023/10/10 03:29:36;;;;;;;44.63;18.98;;;14.30;99.90;;;;;;5055384;28;20028;-54
2023/10/10 03:32:31;;;;;;;46.60;19.60;;;14.30;99.90;;;;;;5055518;28;20020;-53
2023/10/10 03:35:04;;;;;;;42.05;18.08;;;14.30;99.90;;;;;;5055500;28;20415;-54
2023/10/10 03:37:39;;;;;;;39.03;18.67;;;14.30;99.90;;;;;;5055176;28;20024;-52
2023/10/10 03:40:22;;;;;;;40.50;19.42;;;14.20;99.90;;;;;;5055209;28;20047;-54
2023/10/10 05:24:20;;;;;;;35.67;15.23;;;13.80;99.90;;;;;;5076415;28;20484;-54
2023/10/10 05:26:47;;;;;;;33.95;15.30;;;13.70;99.90;;;;;;5076484;28;20040;-52
2023/10/10 05:29:24;;;;;;;30.13;14.68;;;13.80;99.90;;;;;;5075718;28;20048;-54
2023/10/10 05:31:51;;;;;;;28.95;14.27;;;13.80;99.90;;;;;;5076699;28;20067;-53
2023/10/10 05:34:18;;;;;;;33.75;14.77;;;13.90;99.90;;;;;;5076030;28;20037;-51
2023/10/10 05:36:46;;;;;;;32.55;13.93;;;13.80;99.90;;;;;;5076296;28;20032;-53
2023/10/10 05:39:17;;;;;;;28.17;13.65;;;13.80;99.90;;;;;;5076149;28;20039;-50
2023/10/10 05:41:44;;;;;;;29.65;12.95;;;13.80;99.90;;;;;;5076356;28;20051;-50
2023/10/10 05:44:13;;;;;;;34.55;14.30;;;13.80;99.90;;;;;;5076331;28;20082;-50
2023/10/10 05:46:39;;;;;;;31.00;13.90;;;13.80;99.90;;;;;;5076109;28;20480;-52
2023/10/10 05:49:05;;;;;;;27.42;13.38;;;13.70;99.90;;;;;;5075505;28;20032;-54
2023/10/10 05:51:31;;;;;;;27.48;12.68;;;13.70;99.90;;;;;;5075657;28;20041;-49
2023/10/10 05:53:57;;;;;;;25.77;12.40;;;13.70;99.90;;;;;;5076110;28;20032;-49
2023/10/10 05:56:23;;;;;;;30.27;13.30;;;13.70;99.90;;;;;;5075888;28;20025;-50
2023/10/10 05:58:49;;;;;;;29.98;13.30;;;13.70;99.90;;;;;;5075146;28;20036;-50
2023/10/10 06:01:16;;;;;;;30.20;13.85;;;13.70;99.90;;;;;;5074804;28;20123;-54
2023/10/10 06:03:44;;;;;;;28.83;12.95;;;13.70;99.90;;;;;;5075349;28;20068;-51
2023/10/10 06:06:12;;;;;;;26.83;13.10;;;13.70;99.90;;;;;;5075543;28;20039;-52
2023/10/10 06:08:44;;;;;;;28.92;12.57;;;13.70;99.90;;;;;;5075437;28;20039;-54
2023/10/10 06:11:13;;;;;;;29.30;13.70;;;13.70;99.90;;;;;;5076085;28;20407;-49
2023/10/10 06:13:40;;;;;;;25.08;11.32;;;13.80;99.90;;;;;;5057393;28;20115;-52
2023/10/10 06:16:07;;;;;;;21.33;11.55;;;13.80;99.90;;;;;;5076113;28;20028;-55
2023/10/10 06:18:33;;;;;;;19.38;10.55;;;13.70;99.90;;;;;;5057603;28;20058;-51
2023/10/10 06:21:02;;;;;;;23.40;11.32;;;13.70;99.90;;;;;;5057646;28;20509;-49
2023/10/10 06:23:32;;;;;;;24.05;11.10;;;13.70;99.90;;;;;;5075203;28;20574;-51
2023/10/10 06:25:58;;;;;;;20.63;10.10;;;13.80;99.90;;;;;;5075632;28;20035;-49
2023/10/10 06:28:26;;;;;;;24.02;11.40;;;13.80;99.90;;;;;;5075239;28;20111;-54
2023/10/10 06:30:54;;;;;;;22.70;9.65;;;13.80;99.90;;;;;;5075475;28;20043;-50
2023/10/10 06:33:27;;;;;;;21.73;10.43;;;13.80;99.90;;;;;;5057014;28;20029;-51
2023/10/10 06:39:33;;;;;;;18.25;9.13;;;13.90;99.90;;;;;;5074637;28;20401;-50
2023/10/10 06:41:42;;;;;;;19.40;9.43;;;14.00;99.90;;;;;;5060703;28;20040;-50
2023/10/10 06:44:15;;;;;;;25.67;10.82;;;14.00;99.90;;;;;;5074696;28;20040;-51
2023/10/10 06:46:42;;;;;;;21.52;9.60;;;14.00;99.90;;;;;;5041210;28;20512;-52
2023/10/10 06:49:12;;;;;;;20.48;9.85;;;14.10;99.90;;;;;;5074825;28;20052;-49
2023/10/10 06:51:41;;;;;;;30.02;12.55;;;14.10;99.90;;;;;;5074694;28;20032;-51
2023/10/10 06:54:19;;;;;;;22.45;10.40;;;14.20;99.90;;;;;;5074893;28;20028;-49
2023/10/10 06:57:04;;;;;;;20.15;10.38;;;14.30;99.90;;;;;;5074613;28;20389;-51
2023/10/10 06:59:30;;;;;;;18.23;8.63;;;14.30;99.90;;;;;;5075039;28;20040;-49
2023/10/10 07:02:12;;;;;;;19.40;8.80;;;14.40;99.90;;;;;;5075253;28;20028;-50
2023/10/10 07:04:38;;;;;;;19.42;9.18;;;14.50;99.90;;;;;;5057033;28;20033;-51
2023/10/10 07:07:06;;;;;;;17.77;8.05;;;14.50;99.90;;;;;;5074306;28;20028;-53
2023/10/10 07:09:36;;;;;;;22.67;9.88;;;14.50;99.90;;;;;;5073818;28;20032;-52
2023/10/10 07:12:10;;;;;;;19.40;8.85;;;14.60;99.90;;;;;;5073494;28;20086;-54
2023/10/10 07:14:43;;;;;;;17.55;8.32;;;14.60;99.90;;;;;;5073838;28;20025;-50
2023/10/10 07:17:12;;;;;;;18.58;8.93;;;14.70;99.90;;;;;;5074268;28;20108;-50
2023/10/10 07:22:35;;;;;;;17.95;8.75;;;14.80;99.90;;;;;;5073830;28;20131;-55
2023/10/10 07:25:07;;;;;;;18.42;8.52;;;14.90;99.90;;;;;;5039985;28;20576;-55
2023/10/10 07:27:35;;;;;;;16.98;7.65;;;14.80;99.90;;;;;;5074207;28;20166;-55
2023/10/10 07:30:08;;;;;;;17.05;7.25;;;15.00;99.90;;;;;;5073969;28;20089;-52
2023/10/10 07:32:38;;;;;;;18.08;7.93;;;15.00;99.90;;;;;;5073708;28;20032;-52
2023/10/10 07:35:05;;;;;;;15.65;7.80;;;15.00;99.90;;;;;;5073823;28;20041;-49
2023/10/10 07:37:31;;;;;;;16.83;8.07;;;15.10;99.90;;;;;;5074094;28;20099;-55
2023/10/10 07:40:18;;;;;;;16.50;7.75;;;15.20;99.90;;;;;;5073457;28;20059;-50
2023/10/10 07:42:49;;;;;;;21.00;7.88;;;15.20;99.90;;;;;;5073815;28;20473;-54
2023/10/10 07:45:16;;;;;;;18.63;7.82;;;15.20;99.90;;;;;;5073715;28;20115;-54
2023/10/10 07:50:27;;;;;;;14.30;7.22;;;15.40;99.90;;;;;;5073889;28;20032;-52
2023/10/10 07:52:56;;;;;;;15.20;7.38;;;15.60;99.90;;;;;;5073666;28;20433;-55
2023/10/10 07:55:22;;;;;;;15.38;7.80;;;15.70;99.90;;;;;;5073627;28;20035;-53
2023/10/10 07:58:01;;;;;;;14.80;7.35;;;15.70;99.90;;;;;;5073652;28;20052;-53
2023/10/10 08:00:38;;;;;;;16.58;7.35;;;15.80;99.90;;;;;;5073288;28;20491;-54
2023/10/10 08:03:07;;;;;;;14.55;7.40;;;15.90;99.90;;;;;;5074279;28;20032;-53
2023/10/10 08:05:33;;;;;;;19.00;7.47;;;16.00;99.90;;;;;;5055342;28;20039;-53
2023/10/10 08:08:04;;;;;;;20.45;8.02;;;16.10;99.90;;;;;;5073803;28;20029;-54
2023/10/10 08:10:38;;;;;;;19.55;7.38;;;16.30;99.90;;;;;;5055542;28;20082;-54
2023/10/10 08:13:10;;;;;;;17.20;7.85;;;16.40;99.90;;;;;;5073281;28;20492;-52
2023/10/10 08:18:41;;;;;;;12.35;6.13;;;16.60;99.90;;;;;;5073596;28;20024;-55
2023/10/10 08:21:13;;;;;;;17.63;7.55;;;16.80;99.90;;;;;;5073650;28;20036;-53
2023/10/10 08:23:45;;;;;;;13.93;6.40;;;16.80;99.90;;;;;;5057146;28;20037;-51
2023/10/10 08:27:09;;;;;;;14.18;6.82;;;16.80;99.90;;;;;;5077111;28;20032;-53
2023/10/10 08:29:09;;;;;;;15.18;6.63;;;16.80;99.90;;;;;;5066043;28;20402;-55
2023/10/10 08:31:42;;;;;;;16.38;6.55;;;16.90;99.90;;;;;;5077605;28;20473;-54
2023/10/10 08:34:09;;;;;;;16.73;7.20;;;16.90;99.90;;;;;;5058702;28;20650;-54
2023/10/10 08:36:37;;;;;;;15.52;6.50;;;16.90;99.90;;;;;;5076890;28;20082;-52
2023/10/10 08:39:49;;;;;;;15.48;6.40;;;17.00;99.90;;;;;;5076743;28;20114;-55
2023/10/10 08:41:52;;;;;;;14.48;6.85;;;17.10;99.90;;;;;;5066077;28;20044;-52
2023/10/10 08:44:20;;;;;;;11.30;6.20;;;17.20;99.90;;;;;;5076662;28;20508;-51
2023/10/10 08:46:46;;;;;;;15.50;6.43;;;17.30;99.90;;;;;;5076998;28;20036;-53
2023/10/10 08:49:14;;;;;;;13.07;5.60;;;17.40;99.90;;;;;;5076147;28;20148;-55
2023/10/10 08:51:41;;;;;;;14.05;6.47;;;17.50;99.90;;;;;;5076604;28;20025;-54
2023/10/10 08:54:12;;;;;;;13.80;6.47;;;17.70;99.90;;;;;;5076507;28;20031;-53
2023/10/10 08:56:41;;;;;;;12.18;5.60;;;17.70;99.90;;;;;;5076417;28;20397;-55
2023/10/10 08:59:11;;;;;;;14.27;6.32;;;17.80;99.90;;;;;;5076241;28;20404;-53
2023/10/10 09:01:38;;;;;;;13.02;5.60;;;17.90;99.90;;;;;;5075901;28;20392;-53
2023/10/10 09:04:05;;;;;;;13.50;6.20;;;18.00;99.90;;;;;;5075764;28;20071;-54
2023/10/10 09:06:45;;;;;;;14.57;5.78;;;18.10;99.90;;;;;;5076010;28;20036;-54
2023/10/10 09:11:56;;;;;;;14.05;5.68;;;18.30;99.90;;;;;;5075323;28;20029;-54
2023/10/10 09:14:49;;;;;;;10.25;5.25;;;18.50;99.90;;;;;;5075641;28;20538;-53
2023/10/10 09:17:29;;;;;;;10.38;5.07;;;18.60;99.90;;;;;;5075382;28;20459;-54
2023/10/10 09:20:00;;;;;;;15.55;5.53;;;18.70;99.90;;;;;;5075151;28;20040;-54
2023/10/10 09:22:42;;;;;;;14.00;5.88;;;18.70;99.90;;;;;;5075479;28;20028;-53
2023/10/10 09:25:31;;;;;;;13.45;4.97;;;18.90;99.90;;;;;;5075065;28;20024;-54
2023/10/10 09:28:08;;;;;;;12.00;5.35;;;19.00;99.90;;;;;;5074341;28;20039;-55
2023/10/10 09:30:40;;;;;;;11.68;5.75;;;19.00;99.90;;;;;;5073863;28;20032;-55
2023/10/10 09:36:16;;;;;;;11.07;5.55;;;19.20;99.90;;;;;;5073292;28;20040;-56
2023/10/10 09:38:46;;;;;;;12.00;5.45;;;19.50;99.90;;;;;;5073474;28;20029;-56
2023/10/10 09:47:16;;;;;;;10.15;5.10;;;20.60;99.90;;;;;;5073288;28;20086;-52
2023/10/10 09:49:44;;;;;;;12.32;4.75;;;21.10;99.90;;;;;;5072647;28;20531;-55
2023/10/10 10:00:32;;;;;;;14.77;5.40;;;22.40;99.90;;;;;;5073346;28;20036;-55
2023/10/10 10:03:00;;;;;;;10.13;4.45;;;22.30;99.90;;;;;;5073320;28;20052;-54
2023/10/10 10:05:28;;;;;;;11.15;4.30;;;22.40;99.90;;;;;;5073551;28;20109;-53
2023/10/10 10:07:57;;;;;;;;;;;22.40;99.90;;;;;;5074231;28;20039;-54
2023/10/10 10:10:35;;;;;;;;;;;22.30;99.90;;;;;;5074053;28;19962;-51
2023/10/10 10:13:26;;;;;;;7.82;3.53;;;22.20;99.90;;;;;;5073532;28;20006;-54
2023/10/10 10:16:20;;;;;;;10.25;4.18;;;22.20;99.90;;;;;;5073629;28;20072;-54
2023/10/10 10:18:52;;;;;;;8.48;3.80;;;22.10;99.90;;;;;;5073662;28;20400;-52
2023/10/10 10:21:27;;;;;;;10.93;4.18;;;22.00;99.90;;;;;;5073662;28;20039;-53
2023/10/10 10:24:04;;;;;;;10.18;4.57;;;22.00;99.90;;;;;;5073441;28;20476;-54
2023/10/10 10:26:42;;;;;;;8.85;3.78;;;21.70;99.90;;;;;;5036684;28;1049248;-52
2023/10/10 10:29:16;;;;;;;8.75;3.80;;;21.70;99.90;;;;;;5073545;28;20480;-51
2023/10/10 10:31:57;;;;;;;8.30;3.63;;;21.70;99.90;;;;;;5074216;28;20043;-52
2023/10/10 10:34:32;;;;;;;9.75;3.80;;;21.60;99.90;;;;;;5073814;28;20546;-55
2023/10/10 10:37:13;;;;;;;7.53;3.53;;;21.40;99.90;;;;;;5073681;28;20020;-54
2023/10/10 10:39:46;;;;;;;9.15;3.47;;;21.50;99.90;;;;;;5073460;28;20051;-53
2023/10/10 10:42:12;;;;;;;7.38;3.85;;;21.50;99.90;;;;;;5055274;28;20032;-55
2023/10/10 10:45:01;;;;;;;9.57;3.70;;;21.50;99.90;;;;;;5073717;28;20043;-54
2023/10/10 10:47:37;;;;;;;8.20;3.40;;;21.60;99.90;;;;;;5073347;28;20437;-55
2023/10/10 10:50:05;;;;;;;7.78;3.58;;;21.80;99.90;;;;;;5072947;28;20033;-54
2023/10/10 10:52:44;;;;;;;9.30;3.92;;;22.00;99.90;;;;;;5073375;28;20021;-54
2023/10/10 10:55:21;;;;;;;7.70;3.47;;;22.10;99.90;;;;;;5073066;28;20029;-51
2023/10/10 10:57:49;;;;;;;9.45;3.85;;;22.10;99.90;;;;;;5054921;28;20119;-55
2023/10/10 11:00:40;;;;;;;6.90;3.03;;;22.10;99.90;;;;;;5073018;28;20042;-55
2023/10/10 11:03:11;;;;;;;6.97;3.28;;;22.00;99.90;;;;;;5072954;28;20086;-54
2023/10/10 11:05:39;;;;;;;10.13;4.20;;;22.00;99.90;;;;;;5073229;28;20034;-53
2023/10/10 11:08:11;;;;;;;8.57;3.60;;;22.00;99.90;;;;;;5072700;28;20100;-53
2023/10/10 11:10:38;;;;;;;7.43;3.10;;;21.90;99.90;;;;;;5072868;28;21037;-54
2023/10/10 11:13:07;;;;;;;10.07;3.70;;;21.90;99.90;;;;;;5072360;28;20094;-55
2023/10/10 11:15:39;;;;;;;8.55;3.78;;;22.00;99.90;;;;;;5072788;28;20029;-54
2023/10/10 11:18:08;;;;;;;8.43;3.70;;;22.10;99.90;;;;;;5073214;28;20397;-55
2023/10/10 11:20:55;;;;;;;8.00;3.38;;;22.40;99.90;;;;;;5055341;28;20036;-55
2023/10/10 11:23:31;;;;;;;6.82;3.10;;;22.70;99.90;;;;;;5055035;28;20028;-53
2023/10/10 11:26:00;;;;;;;8.68;3.15;;;23.00;99.90;;;;;;5072971;28;20024;-55
2023/10/10 11:28:37;;;;;;;7.22;3.47;;;23.20;99.90;;;;;;5072570;28;20039;-52
2023/10/10 11:31:07;;;;;;;7.72;3.05;;;23.20;99.90;;;;;;5055317;28;20074;-54
2023/10/10 11:36:21;;;;;;;8.87;3.27;;;23.10;99.90;;;;;;5075033;28;20056;-51
2023/10/10 11:38:55;;;;;;;8.75;4.18;;;23.40;99.90;;;;;;5072678;28;20032;-54
2023/10/10 11:41:30;;;;;;;9.27;3.42;;;23.80;99.90;;;;;;5072961;28;20107;-50
2023/10/10 11:44:01;;;;;;;6.13;2.95;;;24.10;99.90;;;;;;5073068;28;20077;-49
2023/10/10 11:46:27;;;;;;;6.07;2.83;;;24.30;99.90;;;;;;5072948;28;20378;-53
2023/10/10 11:48:55;;;;;;;5.47;2.50;;;24.60;99.30;;;;;;5072911;28;20490;-50
2023/10/10 11:51:36;;;;;;;5.95;2.75;;;24.90;98.90;;;;;;5072797;28;20040;-50
2023/10/10 11:54:02;;;;;;;6.63;2.80;;;25.40;98.00;;;;;;5072351;28;20031;-50
2023/10/10 11:56:34;;;;;;;9.10;2.95;;;25.60;96.40;;;;;;5073236;28;20028;-51
2023/10/10 11:59:01;;;;;;;6.50;2.60;;;25.60;96.40;;;;;;5071740;28;20051;-51
2023/10/10 12:04:30;;;;;;;9.20;2.97;;;24.80;97.10;;;;;;5072644;28;20485;-50
2023/10/10 12:06:58;;;;;;;7.43;2.80;;;24.30;97.40;;;;;;5055051;28;20040;-53
2023/10/10 12:09:26;;;;;;;8.23;3.13;;;24.10;98.30;;;;;;5072875;28;20033;-51
2023/10/10 12:11:59;;;;;;;5.95;2.75;;;24.10;98.30;;;;;;5072955;28;20413;-54
2023/10/10 12:14:32;;;;;;;6.43;2.95;;;24.20;97.60;;;;;;5073325;28;20397;-52
2023/10/10 12:17:05;;;;;;;5.88;2.85;;;24.30;97.50;;;;;;5072797;28;20113;-49
2023/10/10 12:19:37;;;;;;;7.03;2.97;;;24.50;97.20;;;;;;5072465;28;20447;-50
2023/10/10 12:22:08;;;;;;;6.35;2.80;;;24.60;97.50;;;;;;5072550;28;20055;-49
2023/10/10 12:24:35;;;;;;;6.07;2.63;;;24.70;97.50;;;;;;5072910;28;20102;-50
2023/10/10 12:27:01;;;;;;;8.13;3.50;;;24.60;97.00;;;;;;5072967;28;20044;-51
2023/10/10 12:29:30;;;;;;;8.38;2.92;;;24.70;97.00;;;;;;5072251;28;20036;-49
2023/10/10 12:31:56;;;;;;;5.13;2.30;;;24.70;97.20;;;;;;5072639;28;20020;-50
2023/10/10 12:34:23;;;;;;;6.95;2.72;;;24.70;97.10;;;;;;5072350;28;20469;-50
2023/10/10 12:36:53;;;;;;;6.90;2.70;;;24.70;97.00;;;;;;5072822;28;20041;-50
2023/10/10 12:39:19;;;;;;;10.05;3.17;;;24.60;97.00;;;;;;5072846;28;20040;-51
2023/10/10 12:41:48;;;;;;;7.30;2.70;;;24.50;96.80;;;;;;5073072;28;20036;-49
2023/10/10 12:44:13;;;;;;;5.82;2.50;;;24.50;97.10;;;;;;5072173;28;20107;-51
2023/10/10 12:46:40;;;;;;;5.68;2.65;;;24.60;97.10;;;;;;5072609;28;20485;-50
2023/10/10 12:49:11;;;;;;;8.23;2.67;;;24.50;96.90;;;;;;5072353;28;20115;-51
2023/10/10 12:51:38;;;;;;;7.70;3.30;;;24.70;97.10;;;;;;5055184;28;20033;-51
2023/10/10 12:54:09;;;;;;;5.88;2.47;;;24.80;96.80;;;;;;5054512;28;20052;-50
2023/10/10 12:56:38;;;;;;;6.53;2.97;;;24.90;97.00;;;;;;5072700;28;20553;-50
2023/10/10 12:59:07;;;;;;;;;;;24.90;97.10;;;;;;5072695;28;20104;-50
2023/10/10 13:01:35;;;;;;;8.55;2.75;;;25.00;96.80;;;;;;5072430;28;19908;-54
2023/10/10 13:04:07;;;;;;;5.28;2.55;;;25.00;97.40;;;;;;5053745;28;20033;-51
2023/10/10 13:06:35;;;;;;;9.20;2.50;;;25.20;97.30;;;;;;5072640;28;20366;-52
2023/10/10 13:09:05;;;;;;;5.93;2.42;;;25.30;96.50;;;;;;5073024;28;20047;-49
2023/10/10 13:11:43;;;;;;;8.63;2.97;;;25.50;95.40;;;;;;5075734;28;20043;-50
2023/10/10 13:14:10;;;;;;;5.43;2.42;;;25.90;95.10;;;;;;5076157;28;20033;-52
2023/10/10 13:19:11;;;;;;;6.45;2.67;;;26.20;95.00;;;;;;5075515;28;20489;-51
2023/10/10 13:21:42;;;;;;;7.22;2.97;;;26.70;94.70;;;;;;5076038;28;20033;-52
2023/10/10 13:24:15;;;;;;;5.60;2.60;;;27.40;93.50;;;;;;5075616;28;20090;-51
2023/10/10 13:26:42;;;;;;;7.15;3.05;;;28.50;91.00;;;;;;5076018;28;20051;-53
2023/10/10 13:29:08;;;;;;;6.00;2.55;;;29.60;87.90;;;;;;5076038;28;20043;-50
2023/10/10 13:31:34;;;;;;;6.57;2.70;;;29.90;84.80;;;;;;5076295;28;20040;-50
2023/10/10 13:34:01;;;;;;;8.05;2.72;;;29.40;84.20;;;;;;5075727;28;20374;-51
2023/10/10 13:36:27;;;;;;;10.63;3.35;;;28.80;84.70;;;;;;5076237;28;20028;-54
2023/10/10 13:38:57;;;;;;;10.15;3.72;;;28.30;85.30;;;;;;5075807;28;20041;-53
2023/10/10 13:41:28;;;;;;;6.25;2.70;;;27.50;86.10;;;;;;5075860;28;20020;-53
2023/10/10 13:43:59;;;;;;;7.47;3.10;;;26.60;89.00;;;;;;5057023;28;20123;-49
2023/10/10 13:46:27;;;;;;;6.63;2.72;;;26.10;90.20;;;;;;5075832;28;20032;-53
2023/10/10 13:48:53;;;;;;;7.38;2.88;;;25.80;91.40;;;;;;5074794;28;20090;-51
2023/10/10 13:51:18;;;;;;;7.75;2.70;;;25.60;90.70;;;;;;5057482;28;20024;-53
2023/10/10 13:53:45;;;;;;;5.32;2.50;;;25.40;91.50;;;;;;5075174;28;20066;-53
2023/10/10 13:56:16;;;;;;;8.30;3.30;;;25.20;92.00;;;;;;5057665;28;20038;-53
2023/10/10 13:58:48;;;;;;;6.68;2.88;;;25.20;92.70;;;;;;5074665;28;20513;-54
2023/10/10 14:01:18;;;;;;;6.63;3.15;;;25.00;92.90;;;;;;5075640;28;20044;-51
2023/10/10 14:03:48;;;;;;;9.52;4.60;;;25.00;93.30;;;;;;5074576;28;20028;-50
2023/10/10 14:06:19;;;;;;;7.15;2.60;;;25.00;93.10;;;;;;5074737;28;20029;-54
2023/10/10 14:08:49;;;;;;;9.35;4.47;;;25.00;93.00;;;;;;5074421;28;20036;-50
2023/10/10 14:11:21;;;;;;;8.68;3.95;;;24.90;93.10;;;;;;5074869;28;20024;-49
2023/10/10 14:13:51;;;;;;;7.75;3.28;;;24.90;92.60;;;;;;5074619;28;20492;-51
2023/10/10 14:16:17;;;;;;;11.35;5.38;;;24.70;92.50;;;;;;5074931;28;20029;-51
2023/10/10 14:18:49;;;;;;;7.53;2.95;;;24.50;92.60;;;;;;5074003;28;20032;-51
2023/10/10 14:21:16;;;;;;;9.18;3.20;;;24.50;92.90;;;;;;5073617;28;20041;-53
2023/10/10 14:23:44;;;;;;;9.35;4.25;;;24.50;93.30;;;;;;5074288;28;20439;-51
2023/10/10 14:26:18;;;;;;;10.30;4.13;;;24.40;94.10;;;;;;5074236;28;20028;-51
2023/10/10 14:28:51;;;;;;;9.00;3.10;;;24.40;93.20;;;;;;5073803;28;20089;-53
2023/10/10 14:31:27;;;;;;;11.93;5.90;;;24.40;93.30;;;;;;5074525;28;20044;-50
2023/10/10 14:33:54;;;;;;;8.25;3.58;;;24.40;93.70;;;;;;5074022;28;20436;-50
2023/10/10 14:36:20;;;;;;;11.63;4.00;;;24.40;93.40;;;;;;5074251;28;20051;-53
2023/10/10 14:38:50;;;;;;;7.68;3.53;;;24.40;93.20;;;;;;5073780;28;20032;-54
2023/10/10 14:41:21;;;;;;;7.38;3.42;;;24.30;93.10;;;;;;5074136;28;20033;-54
2023/10/10 14:43:52;;;;;;;8.65;2.78;;;24.20;93.20;;;;;;5074146;28;20064;-50
2023/10/10 14:46:21;;;;;;;7.28;2.88;;;24.10;93.00;;;;;;5073884;28;20035;-51
2023/10/10 14:48:49;;;;;;;9.77;4.45;;;24.10;93.10;;;;;;5074259;28;20028;-51
2023/10/10 14:51:17;;;;;;;8.82;3.42;;;24.00;93.20;;;;;;5073580;28;20103;-54
2023/10/10 14:53:51;;;;;;;11.07;3.92;;;24.00;93.50;;;;;;5055565;28;20024;-54
2023/10/10 14:56:19;;;;;;;6.18;3.10;;;23.90;93.70;;;;;;5073565;28;20033;-50
2023/10/10 14:58:48;;;;;;;11.10;5.18;;;23.90;94.30;;;;;;5073799;28;20398;-54
2023/10/10 15:01:17;;;;;;;;;;;23.90;93.90;;;;;;5074148;28;20073;-54
2023/10/10 15:03:43;;;;;;;11.25;5.68;;;24.00;94.10;;;;;;5073334;28;20396;-53
2023/10/10 15:06:09;;;;;;;8.55;2.72;;;24.00;94.20;;;;;;5073616;28;20043;-53
2023/10/10 15:08:35;;;;;;;5.25;2.78;;;23.90;94.40;;;;;;5072671;28;20033;-49
2023/10/10 15:11:01;;;;;;;7.60;3.63;;;23.90;94.10;;;;;;5055845;28;20044;-54
2023/10/10 15:13:26;;;;;;;7.32;2.70;;;23.90;94.20;;;;;;5073336;28;20028;-50
2023/10/10 15:15:52;;;;;;;5.88;2.65;;;23.90;94.30;;;;;;5073290;28;20028;-49
2023/10/10 15:18:18;;;;;;;8.38;3.28;;;23.80;94.90;;;;;;5073091;28;20039;-54
2023/10/10 15:20:50;;;;;;;8.55;2.83;;;23.80;94.90;;;;;;5073127;28;20020;-54
2023/10/10 15:23:20;;;;;;;8.27;2.83;;;23.80;95.00;;;;;;5072910;28;20024;-55
2023/10/10 15:25:55;;;;;;;6.72;2.50;;;23.70;95.30;;;;;;5072956;28;20060;-55
2023/10/10 15:28:25;;;;;;;8.05;2.95;;;23.70;95.60;;;;;;5072750;28;20084;-53
2023/10/10 15:30:51;;;;;;;7.57;2.75;;;23.70;95.90;;;;;;5072577;28;20028;-53
2023/10/10 15:33:22;;;;;;;9.02;3.70;;;23.60;96.20;;;;;;5072298;28;20108;-53
2023/10/10 15:35:54;;;;;;;7.75;3.45;;;23.50;96.50;;;;;;5073094;28;20024;-54
2023/10/10 15:38:22;;;;;;;7.00;2.75;;;23.40;96.70;;;;;;5072692;28;20071;-53